Time;durP1;ratioP1;P1;durP2;ratioP2;P2;SDS_P1;SDS_P2;PMS_P1;PMS_P2;Temp;Humidity;BMP_temperature;BMP_pressure;BME280_temperature;BME280_humidity;BME280_pressure;Samples;Min_cycle;Max_cycle;Signal;HPM_P1;HPM_P2
2022/01/14 00:03:57;;;;;;;12.27;7.63;;;12.00;99.90;;;;;;10167314;29;20215;-90
2022/01/14 00:09:17;;;;;;;11.00;7.20;;;12.00;99.90;;;;;;10190753;29;20238;-90
2022/01/14 00:14:35;;;;;;;11.97;6.77;;;12.10;99.90;;;;;;10190958;29;20263;-89
2022/01/14 00:19:39;;;;;;;11.83;7.33;;;12.10;99.90;;;;;;10205581;29;20700;-89
2022/01/14 00:35:18;;;;;;;10.23;6.67;;;11.90;99.90;;;;;;10193519;29;20718;-89
2022/01/14 00:40:21;;;;;;;11.47;6.87;;;12.20;99.90;;;;;;10207891;29;20239;-89
2022/01/14 00:45:23;;;;;;;10.97;6.10;;;12.00;99.90;;;;;;10190275;29;20602;-90
2022/01/14 00:50:26;;;;;;;10.70;6.77;;;12.20;99.90;;;;;;10211971;29;20222;-90
2022/01/14 00:55:40;;;;;;;14.13;7.60;;;12.20;99.90;;;;;;10214938;29;20271;-89
2022/01/14 01:00:43;;;;;;;9.07;5.27;;;12.00;99.90;;;;;;10214936;29;20266;-90
2022/01/14 01:05:45;;;;;;;8.77;6.43;;;12.20;99.90;;;;;;10198006;29;20243;-88
2022/01/14 01:10:49;;;;;;;9.00;5.60;;;12.20;99.90;;;;;;10231098;29;20242;-88
2022/01/14 01:15:54;;;;;;;13.43;5.97;;;12.30;99.90;;;;;;10254264;29;20262;-90
2022/01/14 01:20:56;;;;;;;9.10;6.83;;;12.20;99.90;;;;;;10246671;29;20235;-88
2022/01/14 01:26:10;;;;;;;11.07;6.43;;;12.00;97.90;;;;;;10216963;28;20309;-89
2022/01/14 01:36:35;;;;;;;11.73;6.47;;;12.30;99.90;;;;;;10240953;29;20277;-89
2022/01/14 01:41:40;;;;;;;8.97;5.33;;;12.40;99.90;;;;;;10239079;29;20305;-89
2022/01/14 01:46:46;;;;;;;9.80;5.73;;;12.20;99.90;;;;;;10214974;29;20242;-89
2022/01/14 01:51:51;;;;;;;8.43;5.67;;;11.90;99.90;;;;;;10195508;29;20238;-89
2022/01/14 01:56:54;;;;;;;9.17;5.40;;;12.10;99.90;;;;;;10232148;28;20262;-89
2022/01/14 02:02:00;;;;;;;9.73;5.17;;;12.30;99.90;;;;;;10233783;28;20238;-90
2022/01/14 02:07:02;;;;;;;11.63;5.10;;;12.20;99.90;;;;;;10246391;28;20290;-89
2022/01/14 02:12:09;;;;;;;11.23;5.23;;;12.30;99.90;;;;;;10212736;29;20678;-90
2022/01/14 02:22:14;;;;;;;10.13;5.37;;;12.50;99.90;;;;;;10155582;29;20212;-89
2022/01/14 02:27:17;;;;;;;10.70;5.63;;;12.30;99.90;;;;;;10205395;29;20242;-90
2022/01/14 02:32:20;;;;;;;12.37;6.10;;;12.30;99.80;;;;;;10211653;29;20244;-89
2022/01/14 02:37:23;;;;;;;9.47;5.17;;;12.40;99.20;;;;;;10210680;29;20254;-89
2022/01/14 02:42:25;;;;;;;6.60;4.93;;;12.40;98.10;;;;;;10193439;29;20299;-89
2022/01/14 02:47:28;;;;;;;8.70;5.07;;;12.50;99.50;;;;;;10213030;29;20266;-89
2022/01/14 02:52:43;;;;;;;12.27;5.40;;;12.50;98.80;;;;;;10211023;29;20628;-89
2022/01/14 02:57:49;;;;;;;8.63;4.77;;;12.50;99.20;;;;;;10209641;29;20266;-88
2022/01/14 03:02:52;;;;;;;8.23;4.97;;;12.40;99.30;;;;;;10210601;29;20226;-89
2022/01/14 03:07:55;;;;;;;7.33;4.73;;;12.20;99.60;;;;;;10210919;29;20290;-89
2022/01/14 03:12:57;;;;;;;7.83;4.77;;;12.30;99.40;;;;;;10210171;29;20619;-89
2022/01/14 03:17:59;;;;;;;10.10;4.67;;;12.50;99.10;;;;;;10209400;29;20660;-90
2022/01/14 03:23:05;;;;;;;7.70;4.13;;;12.40;99.00;;;;;;10226101;29;20744;-89
2022/01/14 03:28:08;;;;;;;10.47;4.87;;;12.50;98.90;;;;;;10248906;28;20242;-90
2022/01/14 03:33:10;;;;;;;7.63;4.83;;;12.50;98.00;;;;;;10223733;29;20242;-89
2022/01/14 03:38:13;;;;;;;8.20;4.43;;;12.40;99.10;;;;;;10208909;29;20262;-89
2022/01/14 03:43:15;;;;;;;7.07;4.63;;;12.40;98.80;;;;;;10208785;29;20748;-89
2022/01/14 03:48:19;;;;;;;7.10;3.73;;;12.30;98.30;;;;;;10219547;29;20642;-89
2022/01/14 03:53:22;;;;;;;7.87;4.43;;;12.40;98.90;;;;;;10167636;29;20239;-89
2022/01/14 03:58:24;;;;;;;8.50;4.47;;;12.40;98.70;;;;;;10194808;29;20302;-89
2022/01/14 04:03:27;;;;;;;7.20;4.23;;;12.30;98.70;;;;;;10191553;29;20259;-89
2022/01/14 04:08:29;;;;;;;5.70;4.23;;;12.10;99.20;;;;;;10210858;29;20607;-90
2022/01/14 04:13:46;;;;;;;9.17;4.77;;;12.20;98.20;;;;;;10230208;29;20213;-90
2022/01/14 04:18:49;;;;;;;8.60;4.83;;;12.10;98.20;;;;;;10247751;29;20265;-89
2022/01/14 04:23:52;;;;;;;8.37;4.67;;;12.10;99.20;;;;;;10225101;29;20290;-89
2022/01/14 04:28:54;;;;;;;10.73;4.50;;;12.30;99.20;;;;;;10200043;29;20683;-90
2022/01/14 04:33:57;;;;;;;7.33;3.93;;;12.20;99.20;;;;;;10215660;29;20238;-89
2022/01/14 04:38:59;;;;;;;6.47;3.87;;;12.40;98.70;;;;;;10241240;29;20317;-89
2022/01/14 04:44:02;;;;;;;5.20;3.87;;;12.30;98.80;;;;;;10223916;29;20242;-89
2022/01/14 04:49:05;;;;;;;10.17;4.40;;;12.40;98.50;;;;;;10233909;29;20298;-89
2022/01/14 04:54:08;;;;;;;7.47;3.90;;;12.30;98.70;;;;;;10215152;29;20668;-89
2022/01/14 04:59:11;;;;;;;6.20;3.53;;;12.40;98.60;;;;;;10214923;29;20242;-89
2022/01/14 05:04:13;;;;;;;6.43;4.00;;;12.50;98.30;;;;;;10197283;29;20623;-89
2022/01/14 05:09:23;;;;;;;6.53;4.17;;;12.30;98.50;;;;;;10196754;29;20262;-90
2022/01/14 05:14:28;;;;;;;5.17;4.33;;;12.00;98.60;;;;;;10197115;29;20294;-89
2022/01/14 05:19:30;;;;;;;8.30;4.23;;;12.10;99.10;;;;;;10213478;29;20258;-89
2022/01/14 05:24:34;;;;;;;7.80;3.93;;;12.20;99.10;;;;;;10197086;29;20211;-89
2022/01/14 05:29:37;;;;;;;7.27;3.77;;;12.20;99.20;;;;;;10213381;29;20680;-88
2022/01/14 05:34:42;;;;;;;4.13;3.40;;;12.20;99.00;;;;;;10212314;29;20290;-89
2022/01/14 05:39:45;;;;;;;5.60;4.00;;;12.20;98.90;;;;;;10211995;29;20756;-87
2022/01/14 05:44:47;;;;;;;5.60;3.43;;;12.40;98.60;;;;;;10188644;29;20719;-88
2022/01/14 05:49:50;;;;;;;9.73;5.33;;;12.40;98.50;;;;;;10197343;29;20297;-87
2022/01/14 05:54:53;;;;;;;9.77;4.73;;;11.00;94.70;;;;;;10190564;29;20648;-88
2022/01/14 06:00:06;;;;;;;9.03;4.53;;;11.00;95.90;;;;;;10194632;29;20622;-88
2022/01/14 06:05:19;;;;;;;8.43;4.70;;;11.50;96.00;;;;;;10201346;29;20239;-88
2022/01/14 06:10:22;;;;;;;12.27;5.33;;;11.90;95.30;;;;;;10190880;29;20247;-88
2022/01/14 06:15:25;;;;;;;3.57;3.13;;;11.90;95.60;;;;;;10173363;29;20318;-88
2022/01/14 06:20:28;;;;;;;7.07;3.60;;;12.00;95.50;;;;;;10174741;29;20660;-88
2022/01/14 06:25:39;;;;;;;5.23;3.37;;;11.70;96.30;;;;;;10178477;29;20305;-88
2022/01/14 06:30:56;;;;;;;5.53;3.97;;;12.10;95.70;;;;;;10183936;29;20223;-89
2022/01/14 06:36:02;;;;;;;6.10;3.50;;;12.30;95.80;;;;;;10188176;29;20334;-89
2022/01/14 06:41:04;;;;;;;5.93;3.60;;;12.10;95.80;;;;;;10190872;29;20607;-89
2022/01/14 06:46:07;;;;;;;6.50;3.23;;;12.00;96.20;;;;;;10193858;29;20692;-88
2022/01/14 06:51:15;;;;;;;4.33;3.73;;;11.80;97.30;;;;;;10210466;29;20293;-89
2022/01/14 06:56:20;;;;;;;7.43;4.17;;;11.80;97.10;;;;;;10192584;29;20267;-89
2022/01/14 07:01:22;;;;;;;8.40;3.30;;;12.00;96.90;;;;;;10192646;29;20266;-89
2022/01/14 07:06:25;;;;;;;8.20;3.80;;;12.00;97.20;;;;;;10193477;29;20812;-89
2022/01/14 07:11:34;;;;;;;7.57;3.50;;;12.10;97.20;;;;;;10192554;29;20302;-89
2022/01/14 07:16:37;;;;;;;3.90;2.97;;;12.10;97.00;;;;;;10193568;29;20788;-88
2022/01/14 07:21:40;;;;;;;7.83;4.00;;;12.10;97.10;;;;;;10196707;29;20849;-88
2022/01/14 07:26:42;;;;;;;6.43;3.73;;;12.20;97.00;;;;;;10193482;29;20291;-88
2022/01/14 07:31:45;;;;;;;6.77;4.27;;;12.30;97.10;;;;;;10193476;29;20760;-89
2022/01/14 07:36:48;;;;;;;6.13;3.73;;;12.10;96.90;;;;;;10179776;29;20258;-89
2022/01/14 07:41:51;;;;;;;7.07;4.43;;;12.20;97.00;;;;;;10196012;29;20510;-89
2022/01/14 07:46:54;;;;;;;7.83;4.17;;;12.10;97.00;;;;;;10208617;29;20266;-89
2022/01/14 07:51:57;;;;;;;7.13;4.00;;;12.30;95.70;;;;;;10191785;29;20251;-90
2022/01/14 07:57:00;;;;;;;7.77;3.80;;;12.20;97.00;;;;;;10191174;29;20267;-91
2022/01/14 08:02:04;;;;;;;10.23;4.83;;;12.30;96.80;;;;;;10190609;29;20200;-90
2022/01/14 08:07:10;;;;;;;5.60;3.63;;;12.10;96.50;;;;;;10190208;29;20634;-90
2022/01/14 08:12:13;;;;;;;4.47;4.07;;;12.30;96.90;;;;;;10207244;29;20298;-90
2022/01/14 08:17:19;;;;;;;5.33;3.90;;;12.20;97.10;;;;;;10207584;29;20321;-91
2022/01/14 08:22:21;;;;;;;9.60;4.43;;;12.10;97.40;;;;;;10211316;29;20573;-90
2022/01/14 08:27:26;;;;;;;5.30;4.00;;;12.10;97.10;;;;;;10207695;29;20246;-91
2022/01/14 08:32:28;;;;;;;6.27;4.70;;;12.00;97.50;;;;;;10189299;29;20834;-90
2022/01/14 08:37:31;;;;;;;7.33;3.93;;;12.00;97.60;;;;;;10189861;29;20271;-90
2022/01/14 08:42:34;;;;;;;7.83;5.30;;;12.20;97.40;;;;;;10207530;29;20242;-91
2022/01/14 08:47:36;;;;;;;7.27;4.77;;;12.20;97.40;;;;;;10204911;29;20242;-91
2022/01/14 08:52:39;;;;;;;5.87;4.63;;;12.20;97.20;;;;;;10206637;29;20238;-90
2022/01/14 08:57:45;;;;;;;10.60;6.67;;;12.30;97.00;;;;;;10160038;29;20318;-90
2022/01/14 09:02:48;;;;;;;8.17;4.90;;;11.70;96.70;;;;;;10168129;29;20291;-89
2022/01/14 09:07:51;;;;;;;8.77;4.47;;;12.20;97.30;;;;;;10150194;29;20322;-89
2022/01/14 09:12:54;;;;;;;11.60;6.53;;;11.90;97.70;;;;;;10171548;29;20295;-89
2022/01/14 09:17:56;;;;;;;8.60;5.70;;;11.80;97.50;;;;;;10173220;29;20255;-89
2022/01/14 09:22:59;;;;;;;10.00;4.93;;;12.10;97.30;;;;;;10171996;29;20613;-89
2022/01/14 09:28:02;;;;;;;12.67;9.83;;;12.20;97.30;;;;;;10160721;29;20239;-95
2022/01/14 09:33:04;;;;;;;10.27;7.77;;;10.50;97.40;;;;;;10167626;29;20756;-95
2022/01/14 09:38:07;;;;;;;9.17;6.50;;;11.10;96.90;;;;;;10184053;29;20660;-95
2022/01/14 09:43:12;;;;;;;15.83;6.30;;;11.60;95.50;;;;;;10184341;29;20200;-95
2022/01/14 09:48:35;;;;;;;14.23;8.33;;;12.00;94.80;;;;;;10173601;29;20629;-81
2022/01/14 09:53:38;;;;;;;11.47;7.60;;;10.40;99.90;;;;;;10173320;29;20239;-81
2022/01/14 09:58:46;;;;;;;22.10;8.27;;;11.20;99.90;;;;;;10184918;29;20298;-81
2022/01/14 10:03:59;;;;;;;13.63;7.50;;;11.90;99.90;;;;;;10172442;29;20235;-81
2022/01/14 10:09:21;;;;;;;15.87;6.70;;;12.20;99.90;;;;;;10171774;29;20290;-81
2022/01/14 10:14:24;;;;;;;11.00;6.67;;;12.60;99.90;;;;;;10183139;29;20286;-81
2022/01/14 10:19:27;;;;;;;8.30;6.13;;;13.20;99.90;;;;;;10188846;29;20262;-81
2022/01/14 10:24:32;;;;;;;10.63;5.73;;;13.20;99.90;;;;;;10154630;29;20272;-81
2022/01/14 10:29:38;;;;;;;8.77;5.83;;;13.30;99.90;;;;;;10192170;29;20234;-81
2022/01/14 10:34:42;;;;;;;8.37;5.40;;;13.30;99.90;;;;;;10188772;29;20578;-81
2022/01/14 10:39:52;;;;;;;8.77;5.63;;;13.50;99.90;;;;;;10171910;29;20731;-81
2022/01/14 10:45:08;;;;;;;8.80;5.40;;;13.20;99.90;;;;;;10154575;29;20631;-81
2022/01/14 10:50:11;;;;;;;6.60;4.97;;;13.30;99.90;;;;;;10190384;29;20673;-81
2022/01/14 10:55:26;;;;;;;7.17;5.40;;;13.40;99.90;;;;;;10184695;29;20681;-81
2022/01/14 11:00:28;;;;;;;8.23;5.40;;;13.10;99.90;;;;;;10208172;29;20732;-81
2022/01/14 11:05:33;;;;;;;5.20;4.43;;;13.60;99.90;;;;;;10203796;29;20232;-81
2022/01/14 11:10:38;;;;;;;7.90;4.60;;;13.60;99.90;;;;;;10208352;29;20236;-81
2022/01/14 11:15:41;;;;;;;6.67;4.77;;;13.50;99.90;;;;;;10208991;29;20757;-81
2022/01/14 11:26:08;;;;;;;5.40;4.10;;;13.50;99.90;;;;;;10208604;29;20784;-81
2022/01/14 11:31:37;;;;;;;6.97;3.93;;;13.40;99.90;;;;;;10234779;29;20295;-81
2022/01/14 11:36:58;;;;;;;6.17;4.20;;;12.70;99.90;;;;;;10190630;29;20263;-81
2022/01/14 11:42:08;;;;;;;4.50;3.47;;;13.10;99.90;;;;;;10205889;29;20238;-81
2022/01/14 11:47:24;;;;;;;5.07;3.80;;;13.40;99.90;;;;;;10207473;29;20652;-81
2022/01/14 11:52:41;;;;;;;5.77;3.83;;;13.40;99.90;;;;;;10190723;29;20239;-81
2022/01/14 11:57:47;;;;;;;4.53;3.70;;;13.10;99.90;;;;;;10207861;29;20258;-81
2022/01/14 12:02:50;;;;;;;3.67;3.33;;;13.30;99.90;;;;;;10207937;29;20240;-81
2022/01/14 12:08:01;;;;;;;4.07;3.07;;;13.20;99.90;;;;;;10206863;29;20232;-81
2022/01/14 12:13:29;;;;;;;7.53;3.07;;;13.00;99.90;;;;;;10190186;29;20286;-81
2022/01/14 12:19:04;;;;;;;4.20;3.00;;;13.10;99.90;;;;;;10190237;29;20670;-81
2022/01/14 12:24:18;;;;;;;4.33;3.10;;;13.30;99.90;;;;;;10207356;29;20683;-81
2022/01/14 12:40:38;;;;;;;4.53;3.30;;;13.40;99.90;;;;;;9412382;27;20236;-78
2022/01/14 12:46:13;;;;;;;3.90;2.80;;;13.30;99.90;;;;;;10151956;29;20237;-78
2022/01/14 12:51:19;;;;;;;3.93;3.07;;;13.40;99.90;;;;;;10172890;29;20236;-79
2022/01/14 12:56:25;;;;;;;2.63;2.43;;;13.50;99.90;;;;;;10175127;29;20668;-79
2022/01/14 13:01:34;;;;;;;3.10;2.47;;;13.40;99.90;;;;;;10171814;29;20302;-78
2022/01/14 13:06:40;;;;;;;3.40;3.03;;;13.40;99.90;;;;;;10157270;29;20277;-78
2022/01/14 13:11:50;;;;;;;8.27;4.43;;;13.40;99.90;;;;;;10175312;29;20243;-78
2022/01/14 13:16:53;;;;;;;10.37;4.00;;;11.80;99.90;;;;;;10174981;29;20255;-78
2022/01/14 13:21:57;;;;;;;5.97;3.67;;;12.10;99.90;;;;;;10157916;29;20247;-78
2022/01/14 13:27:09;;;;;;;6.70;3.73;;;12.40;99.90;;;;;;10157971;29;20243;-78
2022/01/14 13:32:15;;;;;;;6.87;3.37;;;12.50;99.90;;;;;;10173298;29;20827;-79
2022/01/14 13:37:21;;;;;;;5.53;3.97;;;11.90;99.90;;;;;;10171523;29;20330;-79
2022/01/14 13:42:25;;;;;;;5.03;3.97;;;12.20;99.90;;;;;;10171157;29;20674;-79
2022/01/14 13:47:33;;;;;;;6.40;3.17;;;12.80;99.90;;;;;;10172858;29;20570;-78
2022/01/14 13:52:36;;;;;;;3.20;2.77;;;12.10;99.90;;;;;;10173051;29;20239;-78
2022/01/14 13:57:38;;;;;;;4.53;2.83;;;12.00;99.90;;;;;;10172722;29;20255;-78
2022/01/14 14:02:51;;;;;;;3.77;2.87;;;12.00;99.90;;;;;;10172684;29;20239;-78
2022/01/14 14:08:06;;;;;;;4.03;2.90;;;11.90;99.90;;;;;;10172496;29;20251;-78
2022/01/14 14:15:38;;;;;;;5.03;2.37;;;11.70;99.90;;;;;;10155042;29;20275;-78
2022/01/14 14:18:55;;;;;;;4.37;2.87;;;11.80;99.90;;;;;;10171635;29;20310;-78
2022/01/14 14:23:58;;;;;;;5.27;2.63;;;11.90;99.90;;;;;;10170426;29;20243;-78
2022/01/14 14:29:21;;;;;;;4.40;2.63;;;12.20;99.90;;;;;;10154635;29;20216;-78
2022/01/14 14:34:24;;;;;;;5.83;3.13;;;12.20;99.90;;;;;;10168595;29;20281;-78
2022/01/14 14:39:27;;;;;;;5.40;3.00;;;11.00;99.90;;;;;;10150769;29;20318;-78
2022/01/14 14:44:29;;;;;;;6.70;3.10;;;12.30;99.90;;;;;;10149463;29;20239;-78
2022/01/14 14:49:31;;;;;;;8.20;3.37;;;12.80;99.90;;;;;;10169834;29;20240;-79
2022/01/14 14:54:35;;;;;;;8.27;3.67;;;13.20;99.90;;;;;;10168340;29;20239;-79
2022/01/14 14:59:38;;;;;;;6.83;2.90;;;13.30;99.90;;;;;;10151597;29;20650;-79
2022/01/14 15:04:42;;;;;;;5.57;3.17;;;13.40;99.90;;;;;;10170174;29;20295;-79
2022/01/14 15:09:45;;;;;;;4.40;3.40;;;13.10;99.90;;;;;;10152046;29;20247;-79
2022/01/14 15:14:49;;;;;;;4.93;3.03;;;13.80;99.90;;;;;;10151617;29;20298;-79
2022/01/14 15:19:52;;;;;;;14.03;5.33;;;13.80;99.90;;;;;;10170692;29;20319;-79
2022/01/14 15:24:54;;;;;;;8.07;3.27;;;11.80;90.20;;;;;;10169471;29;20295;-79
2022/01/14 15:29:57;;;;;;;11.70;3.90;;;10.60;94.70;;;;;;10163035;29;20306;-79
2022/01/14 15:34:59;;;;;;;6.90;3.10;;;9.40;99.90;;;;;;10206516;29;20238;-78
2022/01/14 15:40:05;;;;;;;6.87;2.93;;;10.00;99.90;;;;;;10185359;29;20326;-79
2022/01/14 15:45:10;;;;;;;9.43;2.67;;;8.50;99.90;;;;;;10136014;29;20207;-78
2022/01/14 15:50:15;;;;;;;7.17;2.80;;;9.50;99.90;;;;;;10188025;29;20239;-78
2022/01/14 15:55:17;;;;;;;12.30;4.30;;;9.70;99.90;;;;;;10207314;29;20239;-78
2022/01/14 16:00:20;;;;;;;10.23;4.40;;;9.50;99.90;;;;;;10170303;29;20288;-78
2022/01/14 16:05:22;;;;;;;8.10;4.13;;;8.40;99.90;;;;;;10151441;29;20235;-78
2022/01/14 16:10:25;;;;;;;16.87;5.93;;;8.70;99.90;;;;;;10149680;29;20243;-78
2022/01/14 16:15:28;;;;;;;16.93;5.43;;;7.80;99.90;;;;;;10129702;29;20260;-78
2022/01/14 16:20:34;;;;;;;19.17;4.67;;;9.60;99.90;;;;;;10128422;29;20232;-78
2022/01/14 16:25:36;;;;;;;30.13;13.67;;;8.90;99.90;;;;;;10138837;29;20239;-78
2022/01/14 16:30:39;;;;;;;5.73;3.90;;;9.10;99.90;;;;;;10135975;29;20311;-79
2022/01/14 16:35:45;;;;;;;6.63;3.23;;;10.90;99.90;;;;;;10153596;29;20265;-78
2022/01/14 16:40:48;;;;;;;6.80;3.80;;;11.60;99.90;;;;;;10154591;29;20271;-78
2022/01/14 16:45:50;;;;;;;9.07;3.70;;;11.70;99.90;;;;;;10173664;29;20247;-78
2022/01/14 16:50:53;;;;;;;4.63;2.50;;;11.60;99.90;;;;;;10173808;29;20240;-78
2022/01/14 16:56:00;;;;;;;11.17;3.67;;;12.90;99.90;;;;;;10174251;29;20294;-78
2022/01/14 17:01:04;;;;;;;11.40;3.53;;;11.50;84.30;;;;;;10173670;29;20294;-79
2022/01/14 17:06:07;;;;;;;18.07;6.23;;;11.80;96.10;;;;;;10174562;29;20243;-79
2022/01/14 17:11:10;;;;;;;10.57;3.67;;;11.50;99.90;;;;;;10174607;29;20677;-79
2022/01/14 17:16:12;;;;;;;10.33;4.53;;;12.20;90.70;;;;;;10174040;29;20241;-80
2022/01/14 17:21:15;;;;;;;18.17;3.67;;;12.00;99.90;;;;;;10165744;29;20293;-80
2022/01/14 17:26:18;;;;;;;15.10;3.53;;;12.90;99.90;;;;;;10156100;29;20284;-79
2022/01/14 17:31:21;;;;;;;6.47;2.83;;;13.00;99.90;;;;;;10172111;29;21016;-78
2022/01/14 17:36:24;;;;;;;8.63;3.97;;;13.50;99.90;;;;;;10152845;29;20270;-78
2022/01/14 17:41:26;;;;;;;9.70;3.80;;;13.30;99.90;;;;;;10172743;29;20661;-77
2022/01/14 17:46:29;;;;;;;10.30;4.20;;;12.30;99.90;;;;;;10171549;29;20237;-78
2022/01/14 17:51:31;;;;;;;10.83;3.40;;;13.20;99.90;;;;;;10173016;29;20235;-78
2022/01/14 17:56:34;;;;;;;14.47;4.40;;;13.00;99.90;;;;;;10172806;29;20241;-78
2022/01/14 18:01:37;;;;;;;6.77;3.47;;;12.90;99.90;;;;;;10168425;29;20695;-79
2022/01/14 18:06:40;;;;;;;9.03;3.80;;;13.20;99.90;;;;;;10168618;29;20244;-80
2022/01/14 18:11:53;;;;;;;7.17;3.50;;;13.50;99.90;;;;;;10169395;29;20236;-80
2022/01/14 18:16:55;;;;;;;9.87;3.83;;;13.50;99.90;;;;;;10171018;29;20276;-79
2022/01/14 18:21:59;;;;;;;7.57;3.53;;;13.40;99.90;;;;;;10170596;29;20289;-80
2022/01/14 18:27:01;;;;;;;16.37;5.20;;;13.40;99.90;;;;;;10184424;23;20308;-94
2022/01/14 18:32:04;;;;;;;13.53;5.70;;;12.10;87.40;;;;;;10154977;29;20637;-91
2022/01/14 18:37:06;;;;;;;14.77;5.40;;;11.90;91.80;;;;;;10176420;29;20584;-93
2022/01/14 18:42:09;;;;;;;13.53;5.03;;;12.00;91.10;;;;;;10175590;29;20279;-91
2022/01/14 18:47:11;;;;;;;12.93;4.63;;;12.10;91.60;;;;;;10171890;29;20204;-91
2022/01/14 18:52:14;;;;;;;11.50;5.13;;;12.30;91.80;;;;;;10155858;29;20295;-93
2022/01/14 18:57:17;;;;;;;13.33;5.47;;;12.00;92.90;;;;;;10173214;29;20217;-91
2022/01/14 19:02:20;;;;;;;9.70;4.77;;;12.30;93.00;;;;;;10172079;29;20358;-92
2022/01/14 19:07:23;;;;;;;12.23;4.90;;;12.30;93.90;;;;;;10154123;29;20224;-92
2022/01/14 19:12:25;;;;;;;16.57;4.80;;;12.30;92.30;;;;;;10171640;29;20283;-92
2022/01/14 19:17:28;;;;;;;14.60;4.97;;;12.40;95.20;;;;;;10172142;29;20207;-92
2022/01/14 19:22:30;;;;;;;14.57;5.40;;;12.40;95.60;;;;;;10155441;29;20221;-91
2022/01/14 19:27:33;;;;;;;15.60;4.60;;;12.30;95.30;;;;;;10172826;29;20248;-92
2022/01/14 19:32:35;;;;;;;10.87;4.90;;;11.90;97.60;;;;;;10172202;29;20268;-93
2022/01/14 19:37:38;;;;;;;9.40;4.33;;;11.90;98.00;;;;;;10170324;29;20209;-92
2022/01/14 19:42:40;;;;;;;16.37;8.00;;;12.10;98.80;;;;;;10167724;29;20314;-81
2022/01/14 19:47:43;;;;;;;19.53;7.97;;;11.10;88.10;;;;;;10168647;29;20247;-80
2022/01/14 19:52:45;;;;;;;16.27;7.20;;;11.50;91.90;;;;;;10168029;29;20239;-81
2022/01/14 19:57:48;;;;;;;16.97;7.23;;;12.40;92.30;;;;;;10168053;29;20265;-81
2022/01/14 20:02:50;;;;;;;16.20;6.37;;;12.60;93.00;;;;;;10169465;29;20304;-83
2022/01/14 20:07:53;;;;;;;20.50;7.53;;;13.10;93.90;;;;;;10165781;29;20320;-81
2022/01/14 20:12:56;;;;;;;18.27;7.30;;;13.70;93.20;;;;;;10148322;29;20234;-81
2022/01/14 20:17:58;;;;;;;13.43;6.63;;;14.00;93.60;;;;;;10182707;29;20285;-81
2022/01/14 20:23:05;;;;;;;17.87;7.70;;;14.40;93.70;;;;;;10186589;29;20234;-81
2022/01/14 20:28:07;;;;;;;14.17;7.00;;;14.50;94.30;;;;;;10191427;29;20319;-81
2022/01/14 20:33:11;;;;;;;12.97;6.07;;;14.70;94.50;;;;;;10169677;29;20283;-81
2022/01/14 20:38:14;;;;;;;10.03;5.57;;;14.50;95.50;;;;;;10167629;29;20262;-81
2022/01/14 20:43:17;;;;;;;17.97;6.17;;;14.20;96.90;;;;;;10150760;29;20274;-81
2022/01/14 20:48:22;;;;;;;12.20;6.73;;;14.50;92.40;;;;;;10167690;29;20441;-81
2022/01/14 20:53:26;;;;;;;13.30;7.03;;;14.40;97.40;;;;;;9483215;29;10000704;-81
2022/01/14 20:58:28;;;;;;;18.07;6.97;;;14.60;97.50;;;;;;10169296;29;20257;-81
2022/01/14 21:03:31;;;;;;;11.53;6.53;;;14.70;99.90;;;;;;10186405;29;20240;-81
2022/01/14 21:08:46;;;;;;;11.17;5.67;;;13.50;98.30;;;;;;10167406;29;20246;-81
2022/01/14 21:13:48;;;;;;;12.17;5.70;;;14.30;99.70;;;;;;10170507;29;20239;-81
2022/01/14 21:18:51;;;;;;;13.07;5.80;;;14.60;98.40;;;;;;10152746;29;20251;-81
2022/01/14 21:23:54;;;;;;;13.47;5.33;;;14.80;98.60;;;;;;10168651;29;20243;-81
2022/01/14 21:28:56;;;;;;;11.50;5.97;;;14.60;99.00;;;;;;10152971;29;20263;-81
2022/01/14 21:33:59;;;;;;;10.23;5.37;;;14.50;99.80;;;;;;10169814;29;20237;-81
2022/01/14 21:39:01;;;;;;;13.60;6.17;;;14.40;99.90;;;;;;10168608;29;20247;-81
2022/01/14 21:44:04;;;;;;;15.00;5.90;;;14.40;99.90;;;;;;10169199;29;20767;-81
2022/01/14 21:49:07;;;;;;;9.97;5.50;;;14.20;99.90;;;;;;10152417;29;20658;-81
2022/01/14 21:54:09;;;;;;;13.97;5.90;;;14.20;99.90;;;;;;10167897;29;20249;-81
2022/01/14 21:59:12;;;;;;;12.70;5.60;;;13.90;99.90;;;;;;10151833;29;20294;-81
2022/01/14 22:04:14;;;;;;;12.13;5.20;;;13.90;99.90;;;;;;10151762;29;20242;-81
2022/01/14 22:09:18;;;;;;;9.63;5.53;;;14.00;99.90;;;;;;10150746;29;20243;-81
2022/01/14 22:14:27;;;;;;;11.73;5.37;;;14.00;99.90;;;;;;10167894;29;20245;-81
2022/01/14 22:19:30;;;;;;;12.47;5.37;;;14.10;99.90;;;;;;10165885;29;20318;-81
2022/01/14 22:24:32;;;;;;;12.67;4.93;;;14.10;99.90;;;;;;10166966;29;20267;-81
2022/01/14 22:29:35;;;;;;;8.90;5.13;;;14.00;99.90;;;;;;10167086;29;20275;-81
2022/01/14 22:34:38;;;;;;;9.17;4.57;;;14.10;99.90;;;;;;10150548;29;20247;-81
2022/01/14 22:39:41;;;;;;;12.03;4.87;;;14.10;99.90;;;;;;10166495;29;20325;-81
2022/01/14 22:44:44;;;;;;;10.03;5.20;;;14.00;99.90;;;;;;10166597;29;20254;-81
2022/01/14 22:49:46;;;;;;;10.80;4.80;;;14.00;99.90;;;;;;10164996;29;20273;-81
2022/01/14 22:54:49;;;;;;;8.97;4.50;;;13.90;99.90;;;;;;10164782;29;20687;-81
2022/01/14 22:59:51;;;;;;;12.07;5.20;;;13.90;99.90;;;;;;10148903;29;20317;-81
2022/01/14 23:04:56;;;;;;;8.63;4.50;;;13.80;99.90;;;;;;10164054;29;20234;-81
2022/01/14 23:09:59;;;;;;;12.90;4.70;;;13.80;99.90;;;;;;10148677;29;20254;-81
2022/01/14 23:15:02;;;;;;;11.07;4.57;;;13.80;99.90;;;;;;9825913;29;10000256;-81
2022/01/14 23:20:05;;;;;;;9.73;4.50;;;13.80;99.90;;;;;;10164601;29;20265;-81
2022/01/14 23:25:11;;;;;;;13.43;5.07;;;13.80;99.90;;;;;;10165114;29;20250;-81
2022/01/14 23:30:14;;;;;;;9.20;4.47;;;13.70;99.90;;;;;;10165590;29;20303;-81
2022/01/14 23:35:17;;;;;;;10.10;4.80;;;13.80;99.90;;;;;;10164104;29;20278;-81
2022/01/14 23:40:20;;;;;;;13.13;4.70;;;13.80;99.90;;;;;;10166792;29;20254;-81
2022/01/14 23:45:36;;;;;;;11.43;4.57;;;13.90;99.90;;;;;;10169978;29;20257;-82
2022/01/14 23:50:39;;;;;;;10.20;4.37;;;13.60;99.90;;;;;;10168842;29;20242;-81
2022/01/14 23:55:42;;;;;;;7.40;4.50;;;13.70;99.90;;;;;;10168592;29;20322;-81
